Belk, Alabama
Current Conditions -  °F | °C
As of 11:58 AM on Friday 24 Oct 2014 (Local Time) from KCBM Reporting Station
Clear Clear  
Wind Chill: 67°   Ceiling: Unl
Heat Index: 67°   Visibility: 10mi
Dew Point: 45°   Wind: 5mph
Humidity: 44%   Direction: NA
Pressure: 30.12"   Gusts: NA
Location:  33.65°N, 87.93°W
Report Text: KCBM 241658Z AUTO VRB04KT 10SM CLR 20/07 A3012 RMK AO2 SLP202 T01970071 $
Loading
Personal Weather Stations






























Interactive Weather Map
Tropical Storm Tracking
New forecast layout! Learn more

10-Day Weather Forecast

Advertisements
Track Severe Weather on mobile